sensor_id;sensor_type;location;lat;lon;timestamp;P1;durP1;ratioP1;P2;durP2;ratioP2
22648;SDS011;11491;41.942;24.220;2024-03-23T00:51:56;27.27;;;11.32;;
22648;SDS011;11491;41.942;24.220;2024-03-23T00:54:22;22.67;;;11.90;;
22648;SDS011;11491;41.942;24.220;2024-03-23T00:56:49;24.92;;;13.13;;
22648;SDS011;11491;41.942;24.220;2024-03-23T00:59:15;16.85;;;8.15;;
22648;SDS011;11491;41.942;24.220;2024-03-23T01:01:42;14.63;;;9.10;;
22648;SDS011;11491;41.942;24.220;2024-03-23T01:04:07;15.15;;;9.15;;
22648;SDS011;11491;41.942;24.220;2024-03-23T01:06:34;20.08;;;11.65;;
22648;SDS011;11491;41.942;24.220;2024-03-23T01:09:01;22.30;;;13.10;;
22648;SDS011;11491;41.942;24.220;2024-03-23T01:11:28;20.65;;;12.73;;
22648;SDS011;11491;41.942;24.220;2024-03-23T01:13:54;13.93;;;8.75;;
22648;SDS011;11491;41.942;24.220;2024-03-23T01:16:21;16.42;;;9.02;;
22648;SDS011;11491;41.942;24.220;2024-03-23T01:18:47;13.68;;;9.43;;
22648;SDS011;11491;41.942;24.220;2024-03-23T01:21:14;15.70;;;10.02;;
22648;SDS011;11491;41.942;24.220;2024-03-23T01:23:39;19.25;;;11.30;;
22648;SDS011;11491;41.942;24.220;2024-03-23T01:26:08;21.67;;;9.43;;
22648;SDS011;11491;41.942;24.220;2024-03-23T01:28:34;16.77;;;10.02;;
22648;SDS011;11491;41.942;24.220;2024-03-23T01:31:01;18.38;;;9.95;;
22648;SDS011;11491;41.942;24.220;2024-03-23T01:33:27;17.08;;;10.02;;
22648;SDS011;11491;41.942;24.220;2024-03-23T01:35:54;17.50;;;11.07;;
22648;SDS011;11491;41.942;24.220;2024-03-23T01:38:20;23.17;;;11.07;;
22648;SDS011;11491;41.942;24.220;2024-03-23T01:40:46;18.42;;;10.63;;
22648;SDS011;11491;41.942;24.220;2024-03-23T01:43:14;17.77;;;10.23;;
22648;SDS011;11491;41.942;24.220;2024-03-23T01:45:40;19.00;;;10.05;;
22648;SDS011;11491;41.942;24.220;2024-03-23T01:48:07;16.27;;;9.27;;
22648;SDS011;11491;41.942;24.220;2024-03-23T01:50:34;15.90;;;8.52;;
22648;SDS011;11491;41.942;24.220;2024-03-23T01:53:00;14.00;;;8.52;;
22648;SDS011;11491;41.942;24.220;2024-03-23T01:55:30;12.77;;;8.50;;
22648;SDS011;11491;41.942;24.220;2024-03-23T01:57:57;12.07;;;7.40;;
22648;SDS011;11491;41.942;24.220;2024-03-23T02:00:25;12.60;;;7.13;;
22648;SDS011;11491;41.942;24.220;2024-03-23T02:02:53;8.60;;;5.80;;
22648;SDS011;11491;41.942;24.220;2024-03-23T02:05:20;11.15;;;7.15;;
22648;SDS011;11491;41.942;24.220;2024-03-23T02:07:45;11.75;;;7.53;;
22648;SDS011;11491;41.942;24.220;2024-03-23T02:10:12;14.13;;;8.38;;
22648;SDS011;11491;41.942;24.220;2024-03-23T02:12:38;16.98;;;8.68;;
22648;SDS011;11491;41.942;24.220;2024-03-23T02:15:05;26.83;;;13.52;;
22648;SDS011;11491;41.942;24.220;2024-03-23T02:17:33;30.10;;;16.67;;
22648;SDS011;11491;41.942;24.220;2024-03-23T02:20:01;30.17;;;15.13;;
22648;SDS011;11491;41.942;24.220;2024-03-23T02:22:34;31.20;;;17.45;;
22648;SDS011;11491;41.942;24.220;2024-03-23T02:25:04;32.72;;;17.88;;
22648;SDS011;11491;41.942;24.220;2024-03-23T02:27:30;18.75;;;11.30;;
22648;SDS011;11491;41.942;24.220;2024-03-23T02:29:58;21.05;;;12.77;;
22648;SDS011;11491;41.942;24.220;2024-03-23T02:32:23;19.08;;;11.98;;
22648;SDS011;11491;41.942;24.220;2024-03-23T02:34:50;21.92;;;13.68;;
22648;SDS011;11491;41.942;24.220;2024-03-23T02:37:16;12.43;;;7.70;;
22648;SDS011;11491;41.942;24.220;2024-03-23T02:39:43;13.07;;;8.48;;
22648;SDS011;11491;41.942;24.220;2024-03-23T02:42:10;13.82;;;7.65;;
22648;SDS011;11491;41.942;24.220;2024-03-23T02:44:36;12.45;;;7.93;;
22648;SDS011;11491;41.942;24.220;2024-03-23T02:47:02;14.45;;;8.65;;
22648;SDS011;11491;41.942;24.220;2024-03-23T02:49:29;14.07;;;8.35;;
22648;SDS011;11491;41.942;24.220;2024-03-23T02:51:55;13.82;;;9.05;;
22648;SDS011;11491;41.942;24.220;2024-03-23T02:54:21;17.27;;;10.50;;
22648;SDS011;11491;41.942;24.220;2024-03-23T02:56:47;18.08;;;11.25;;
22648;SDS011;11491;41.942;24.220;2024-03-23T02:59:15;19.13;;;11.25;;
22648;SDS011;11491;41.942;24.220;2024-03-23T03:01:41;21.67;;;13.45;;
22648;SDS011;11491;41.942;24.220;2024-03-23T03:04:08;16.13;;;10.10;;
22648;SDS011;11491;41.942;24.220;2024-03-23T03:06:33;21.83;;;12.82;;
22648;SDS011;11491;41.942;24.220;2024-03-23T03:09:00;17.55;;;9.15;;
22648;SDS011;11491;41.942;24.220;2024-03-23T03:11:26;19.42;;;9.60;;
22648;SDS011;11491;41.942;24.220;2024-03-23T03:13:53;12.10;;;8.13;;
22648;SDS011;11491;41.942;24.220;2024-03-23T03:16:20;14.43;;;8.90;;
22648;SDS011;11491;41.942;24.220;2024-03-23T03:18:46;18.98;;;11.38;;
22648;SDS011;11491;41.942;24.220;2024-03-23T03:21:12;19.15;;;11.43;;
22648;SDS011;11491;41.942;24.220;2024-03-23T03:23:39;19.10;;;10.75;;
22648;SDS011;11491;41.942;24.220;2024-03-23T03:26:05;14.68;;;9.30;;
22648;SDS011;11491;41.942;24.220;2024-03-23T03:28:33;13.13;;;7.82;;
22648;SDS011;11491;41.942;24.220;2024-03-23T03:30:59;12.80;;;8.07;;
22648;SDS011;11491;41.942;24.220;2024-03-23T03:33:28;14.07;;;8.18;;
22648;SDS011;11491;41.942;24.220;2024-03-23T03:35:54;13.55;;;8.38;;
22648;SDS011;11491;41.942;24.220;2024-03-23T03:38:21;18.75;;;10.50;;
22648;SDS011;11491;41.942;24.220;2024-03-23T03:40:46;14.50;;;7.90;;
22648;SDS011;11491;41.942;24.220;2024-03-23T03:43:13;22.33;;;10.38;;
22648;SDS011;11491;41.942;24.220;2024-03-23T03:45:39;15.55;;;9.82;;
22648;SDS011;11491;41.942;24.220;2024-03-23T03:48:06;18.55;;;10.43;;
22648;SDS011;11491;41.942;24.220;2024-03-23T03:50:34;17.23;;;9.75;;
22648;SDS011;11491;41.942;24.220;2024-03-23T03:53:00;15.38;;;9.20;;
22648;SDS011;11491;41.942;24.220;2024-03-23T03:55:26;18.52;;;10.38;;
22648;SDS011;11491;41.942;24.220;2024-03-23T03:57:53;20.92;;;11.85;;
22648;SDS011;11491;41.942;24.220;2024-03-23T04:00:19;16.55;;;9.90;;
22648;SDS011;11491;41.942;24.220;2024-03-23T04:02:46;17.42;;;10.63;;
22648;SDS011;11491;41.942;24.220;2024-03-23T04:05:12;16.80;;;10.02;;
22648;SDS011;11491;41.942;24.220;2024-03-23T04:07:40;14.02;;;10.07;;
22648;SDS011;11491;41.942;24.220;2024-03-23T04:10:07;15.90;;;9.75;;
22648;SDS011;11491;41.942;24.220;2024-03-23T04:12:34;15.63;;;10.20;;
22648;SDS011;11491;41.942;24.220;2024-03-23T04:15:00;16.90;;;10.07;;
22648;SDS011;11491;41.942;24.220;2024-03-23T04:17:29;25.50;;;12.48;;
22648;SDS011;11491;41.942;24.220;2024-03-23T04:19:57;20.50;;;13.10;;
22648;SDS011;11491;41.942;24.220;2024-03-23T04:22:24;43.38;;;23.50;;
22648;SDS011;11491;41.942;24.220;2024-03-23T04:24:52;33.40;;;17.88;;
22648;SDS011;11491;41.942;24.220;2024-03-23T04:27:19;14.93;;;8.52;;
22648;SDS011;11491;41.942;24.220;2024-03-23T04:29:46;13.27;;;8.65;;
22648;SDS011;11491;41.942;24.220;2024-03-23T04:32:14;16.60;;;10.07;;
22648;SDS011;11491;41.942;24.220;2024-03-23T04:34:40;19.00;;;12.90;;
22648;SDS011;11491;41.942;24.220;2024-03-23T04:37:06;17.52;;;11.63;;
22648;SDS011;11491;41.942;24.220;2024-03-23T04:39:33;14.27;;;10.23;;
22648;SDS011;11491;41.942;24.220;2024-03-23T04:42:01;15.27;;;10.65;;
22648;SDS011;11491;41.942;24.220;2024-03-23T04:44:29;14.15;;;10.23;;
22648;SDS011;11491;41.942;24.220;2024-03-23T04:46:56;12.93;;;9.60;;
22648;SDS011;11491;41.942;24.220;2024-03-23T04:49:22;18.48;;;12.52;;
22648;SDS011;11491;41.942;24.220;2024-03-23T04:51:49;22.75;;;14.68;;
22648;SDS011;11491;41.942;24.220;2024-03-23T04:54:16;18.17;;;12.15;;
22648;SDS011;11491;41.942;24.220;2024-03-23T04:56:43;23.90;;;14.43;;
22648;SDS011;11491;41.942;24.220;2024-03-23T04:59:11;24.15;;;17.40;;
22648;SDS011;11491;41.942;24.220;2024-03-23T05:01:36;28.60;;;19.33;;
22648;SDS011;11491;41.942;24.220;2024-03-23T05:04:07;31.58;;;20.35;;
22648;SDS011;11491;41.942;24.220;2024-03-23T05:06:33;36.35;;;23.52;;
22648;SDS011;11491;41.942;24.220;2024-03-23T05:09:00;39.25;;;24.60;;
22648;SDS011;11491;41.942;24.220;2024-03-23T05:11:27;41.83;;;26.60;;
22648;SDS011;11491;41.942;24.220;2024-03-23T05:13:53;88.63;;;42.30;;
22648;SDS011;11491;41.942;24.220;2024-03-23T05:16:20;73.13;;;40.85;;
22648;SDS011;11491;41.942;24.220;2024-03-23T05:18:47;63.47;;;38.30;;
22648;SDS011;11491;41.942;24.220;2024-03-23T05:21:13;73.45;;;44.70;;
22648;SDS011;11491;41.942;24.220;2024-03-23T05:23:39;81.25;;;55.65;;
22648;SDS011;11491;41.942;24.220;2024-03-23T05:26:05;83.03;;;56.95;;
22648;SDS011;11491;41.942;24.220;2024-03-23T05:28:32;78.68;;;51.28;;
22648;SDS011;11491;41.942;24.220;2024-03-23T05:30:58;58.97;;;40.97;;
22648;SDS011;11491;41.942;24.220;2024-03-23T05:33:26;65.60;;;43.67;;
22648;SDS011;11491;41.942;24.220;2024-03-23T05:35:55;68.57;;;44.45;;
22648;SDS011;11491;41.942;24.220;2024-03-23T05:38:23;57.47;;;41.38;;
22648;SDS011;11491;41.942;24.220;2024-03-23T05:40:52;61.70;;;40.08;;
22648;SDS011;11491;41.942;24.220;2024-03-23T05:43:20;60.88;;;38.60;;
22648;SDS011;11491;41.942;24.220;2024-03-23T05:45:45;54.33;;;36.22;;
22648;SDS011;11491;41.942;24.220;2024-03-23T05:48:12;48.17;;;32.97;;
22648;SDS011;11491;41.942;24.220;2024-03-23T05:50:39;43.42;;;30.65;;
22648;SDS011;11491;41.942;24.220;2024-03-23T05:53:06;45.05;;;31.40;;
22648;SDS011;11491;41.942;24.220;2024-03-23T05:55:33;45.38;;;31.08;;
22648;SDS011;11491;41.942;24.220;2024-03-23T05:57:59;38.20;;;28.08;;
22648;SDS011;11491;41.942;24.220;2024-03-23T06:00:25;55.67;;;36.33;;
22648;SDS011;11491;41.942;24.220;2024-03-23T06:02:52;59.50;;;33.80;;
22648;SDS011;11491;41.942;24.220;2024-03-23T06:05:17;42.30;;;28.55;;
22648;SDS011;11491;41.942;24.220;2024-03-23T06:07:45;42.38;;;30.75;;
22648;SDS011;11491;41.942;24.220;2024-03-23T06:10:11;45.50;;;38.67;;
22648;SDS011;11491;41.942;24.220;2024-03-23T06:12:38;50.03;;;40.13;;
22648;SDS011;11491;41.942;24.220;2024-03-23T06:15:04;39.10;;;31.73;;
22648;SDS011;11491;41.942;24.220;2024-03-23T06:17:35;42.38;;;32.08;;
22648;SDS011;11491;41.942;24.220;2024-03-23T06:20:01;50.53;;;37.05;;
22648;SDS011;11491;41.942;24.220;2024-03-23T06:22:31;54.83;;;36.28;;
22648;SDS011;11491;41.942;24.220;2024-03-23T06:24:58;56.85;;;38.35;;
22648;SDS011;11491;41.942;24.220;2024-03-23T06:27:25;77.18;;;55.45;;
22648;SDS011;11491;41.942;24.220;2024-03-23T06:29:51;51.13;;;41.22;;
22648;SDS011;11491;41.942;24.220;2024-03-23T06:32:17;44.97;;;35.22;;
22648;SDS011;11491;41.942;24.220;2024-03-23T06:34:43;44.15;;;32.03;;
22648;SDS011;11491;41.942;24.220;2024-03-23T06:37:10;44.17;;;33.42;;
22648;SDS011;11491;41.942;24.220;2024-03-23T06:39:36;46.38;;;35.05;;
22648;SDS011;11491;41.942;24.220;2024-03-23T06:42:05;39.55;;;29.60;;
22648;SDS011;11491;41.942;24.220;2024-03-23T06:44:31;39.38;;;26.98;;
22648;SDS011;11491;41.942;24.220;2024-03-23T06:46:57;25.10;;;18.52;;
22648;SDS011;11491;41.942;24.220;2024-03-23T06:49:23;26.73;;;17.83;;
22648;SDS011;11491;41.942;24.220;2024-03-23T06:51:50;17.20;;;13.00;;
22648;SDS011;11491;41.942;24.220;2024-03-23T06:54:16;16.73;;;12.85;;
22648;SDS011;11491;41.942;24.220;2024-03-23T06:56:43;23.30;;;17.45;;
22648;SDS011;11491;41.942;24.220;2024-03-23T06:59:11;42.70;;;27.10;;
22648;SDS011;11491;41.942;24.220;2024-03-23T07:01:37;36.88;;;26.88;;
22648;SDS011;11491;41.942;24.220;2024-03-23T07:04:03;31.48;;;22.67;;
22648;SDS011;11491;41.942;24.220;2024-03-23T07:06:30;27.45;;;19.23;;
22648;SDS011;11491;41.942;24.220;2024-03-23T07:08:56;26.00;;;18.42;;
22648;SDS011;11491;41.942;24.220;2024-03-23T07:11:23;29.35;;;17.40;;
22648;SDS011;11491;41.942;24.220;2024-03-23T07:13:50;30.17;;;21.75;;
22648;SDS011;11491;41.942;24.220;2024-03-23T07:16:18;25.85;;;19.80;;
22648;SDS011;11491;41.942;24.220;2024-03-23T07:18:44;29.92;;;18.40;;
22648;SDS011;11491;41.942;24.220;2024-03-23T07:21:11;16.98;;;12.00;;
22648;SDS011;11491;41.942;24.220;2024-03-23T07:23:36;21.63;;;13.38;;
22648;SDS011;11491;41.942;24.220;2024-03-23T07:26:07;18.20;;;13.48;;
22648;SDS011;11491;41.942;24.220;2024-03-23T07:28:33;33.00;;;19.95;;
22648;SDS011;11491;41.942;24.220;2024-03-23T07:31:04;10.00;;;6.65;;
22648;SDS011;11491;41.942;24.220;2024-03-23T07:33:32;12.63;;;7.97;;
22648;SDS011;11491;41.942;24.220;2024-03-23T07:35:59;27.92;;;20.27;;
22648;SDS011;11491;41.942;24.220;2024-03-23T07:38:26;19.23;;;12.65;;
22648;SDS011;11491;41.942;24.220;2024-03-23T07:41:02;15.02;;;8.77;;
22648;SDS011;11491;41.942;24.220;2024-03-23T07:43:28;17.23;;;10.80;;
22648;SDS011;11491;41.942;24.220;2024-03-23T07:45:55;28.88;;;16.45;;
22648;SDS011;11491;41.942;24.220;2024-03-23T07:48:21;13.25;;;7.97;;
22648;SDS011;11491;41.942;24.220;2024-03-23T07:50:57;10.02;;;5.85;;
22648;SDS011;11491;41.942;24.220;2024-03-23T07:53:23;12.98;;;8.75;;
22648;SDS011;11491;41.942;24.220;2024-03-23T07:55:59;9.40;;;7.03;;
22648;SDS011;11491;41.942;24.220;2024-03-23T07:58:26;13.10;;;8.80;;
22648;SDS011;11491;41.942;24.220;2024-03-23T08:00:54;15.05;;;7.65;;
22648;SDS011;11491;41.942;24.220;2024-03-23T08:03:20;29.00;;;16.77;;
22648;SDS011;11491;41.942;24.220;2024-03-23T08:05:47;13.95;;;8.00;;
22648;SDS011;11491;41.942;24.220;2024-03-23T08:08:14;8.32;;;5.55;;
22648;SDS011;11491;41.942;24.220;2024-03-23T08:10:48;8.77;;;4.95;;
22648;SDS011;11491;41.942;24.220;2024-03-23T08:13:14;9.35;;;5.70;;
22648;SDS011;11491;41.942;24.220;2024-03-23T08:15:41;6.32;;;4.30;;
22648;SDS011;11491;41.942;24.220;2024-03-23T08:18:07;14.52;;;4.97;;
22648;SDS011;11491;41.942;24.220;2024-03-23T08:20:34;8.20;;;4.97;;
22648;SDS011;11491;41.942;24.220;2024-03-23T08:23:00;8.88;;;6.40;;
22648;SDS011;11491;41.942;24.220;2024-03-23T08:25:30;13.07;;;9.38;;
22648;SDS011;11491;41.942;24.220;2024-03-23T08:27:57;11.27;;;8.77;;
22648;SDS011;11491;41.942;24.220;2024-03-23T08:30:23;8.07;;;6.85;;
22648;SDS011;11491;41.942;24.220;2024-03-23T08:32:49;10.27;;;4.93;;
22648;SDS011;11491;41.942;24.220;2024-03-23T08:35:15;6.88;;;4.45;;
22648;SDS011;11491;41.942;24.220;2024-03-23T08:37:42;7.97;;;4.90;;
22648;SDS011;11491;41.942;24.220;2024-03-23T08:40:08;8.40;;;5.65;;
22648;SDS011;11491;41.942;24.220;2024-03-23T08:42:36;7.80;;;5.25;;
22648;SDS011;11491;41.942;24.220;2024-03-23T08:45:05;8.10;;;6.03;;
22648;SDS011;11491;41.942;24.220;2024-03-23T08:47:33;108.43;;;62.72;;
22648;SDS011;11491;41.942;24.220;2024-03-23T08:50:00;11.50;;;6.35;;
22648;SDS011;11491;41.942;24.220;2024-03-23T08:52:27;10.10;;;5.68;;
22648;SDS011;11491;41.942;24.220;2024-03-23T08:54:54;11.68;;;8.65;;
22648;SDS011;11491;41.942;24.220;2024-03-23T08:57:22;9.27;;;4.78;;
22648;SDS011;11491;41.942;24.220;2024-03-23T08:59:49;12.02;;;6.10;;
22648;SDS011;11491;41.942;24.220;2024-03-23T09:02:16;11.77;;;7.60;;
22648;SDS011;11491;41.942;24.220;2024-03-23T09:04:42;6.45;;;4.03;;
22648;SDS011;11491;41.942;24.220;2024-03-23T09:07:12;7.75;;;5.53;;
22648;SDS011;11491;41.942;24.220;2024-03-23T09:09:38;9.60;;;8.70;;
22648;SDS011;11491;41.942;24.220;2024-03-23T09:12:05;10.27;;;9.02;;
22648;SDS011;11491;41.942;24.220;2024-03-23T09:14:31;15.13;;;12.30;;
22648;SDS011;11491;41.942;24.220;2024-03-23T09:16:59;10.27;;;5.38;;
22648;SDS011;11491;41.942;24.220;2024-03-23T09:19:26;6.07;;;4.70;;
22648;SDS011;11491;41.942;24.220;2024-03-23T09:21:54;7.60;;;3.80;;
22648;SDS011;11491;41.942;24.220;2024-03-23T09:24:19;7.25;;;4.53;;
22648;SDS011;11491;41.942;24.220;2024-03-23T09:26:46;8.13;;;4.95;;
22648;SDS011;11491;41.942;24.220;2024-03-23T09:29:12;7.50;;;4.95;;
22648;SDS011;11491;41.942;24.220;2024-03-23T09:31:39;6.45;;;4.07;;
22648;SDS011;11491;41.942;24.220;2024-03-23T09:34:07;7.22;;;4.25;;
22648;SDS011;11491;41.942;24.220;2024-03-23T09:36:34;7.15;;;4.13;;
22648;SDS011;11491;41.942;24.220;2024-03-23T09:38:59;12.68;;;7.65;;
22648;SDS011;11491;41.942;24.220;2024-03-23T09:41:26;7.80;;;5.97;;
22648;SDS011;11491;41.942;24.220;2024-03-23T09:43:52;8.00;;;5.60;;
22648;SDS011;11491;41.942;24.220;2024-03-23T09:46:19;8.60;;;6.13;;
22648;SDS011;11491;41.942;24.220;2024-03-23T09:48:46;10.57;;;4.03;;
22648;SDS011;11491;41.942;24.220;2024-03-23T09:51:14;10.50;;;7.53;;
22648;SDS011;11491;41.942;24.220;2024-03-23T09:53:40;6.32;;;3.83;;
22648;SDS011;11491;41.942;24.220;2024-03-23T09:56:07;11.43;;;7.05;;
22648;SDS011;11491;41.942;24.220;2024-03-23T09:58:34;16.00;;;10.55;;
22648;SDS011;11491;41.942;24.220;2024-03-23T10:01:01;15.88;;;10.40;;
22648;SDS011;11491;41.942;24.220;2024-03-23T10:03:28;9.60;;;5.97;;
22648;SDS011;11491;41.942;24.220;2024-03-23T10:06:01;10.15;;;6.10;;
22648;SDS011;11491;41.942;24.220;2024-03-23T10:08:28;15.43;;;9.82;;
22648;SDS011;11491;41.942;24.220;2024-03-23T10:10:56;22.63;;;12.70;;
22648;SDS011;11491;41.942;24.220;2024-03-23T10:13:25;31.88;;;17.33;;
22648;SDS011;11491;41.942;24.220;2024-03-23T10:15:56;21.27;;;14.60;;
22648;SDS011;11491;41.942;24.220;2024-03-23T10:18:24;27.90;;;14.68;;
22648;SDS011;11491;41.942;24.220;2024-03-23T10:21:06;7.20;;;4.07;;
22648;SDS011;11491;41.942;24.220;2024-03-23T10:23:35;12.00;;;7.65;;
22648;SDS011;11491;41.942;24.220;2024-03-23T10:26:12;29.33;;;17.95;;
22648;SDS011;11491;41.942;24.220;2024-03-23T10:28:52;16.98;;;9.73;;
22648;SDS011;11491;41.942;24.220;2024-03-23T10:31:20;31.75;;;17.85;;
22648;SDS011;11491;41.942;24.220;2024-03-23T10:33:46;13.30;;;6.68;;
22648;SDS011;11491;41.942;24.220;2024-03-23T10:36:13;20.95;;;12.15;;
22648;SDS011;11491;41.942;24.220;2024-03-23T10:38:41;24.25;;;14.68;;
22648;SDS011;11491;41.942;24.220;2024-03-23T10:41:09;31.80;;;17.63;;
22648;SDS011;11491;41.942;24.220;2024-03-23T10:43:36;29.42;;;15.45;;
22648;SDS011;11491;41.942;24.220;2024-03-23T10:46:03;19.00;;;8.73;;
22648;SDS011;11491;41.942;24.220;2024-03-23T10:48:29;16.45;;;10.35;;
22648;SDS011;11491;41.942;24.220;2024-03-23T10:50:56;13.07;;;8.43;;
22648;SDS011;11491;41.942;24.220;2024-03-23T10:53:25;15.55;;;9.43;;
22648;SDS011;11491;41.942;24.220;2024-03-23T10:55:54;13.82;;;11.07;;
22648;SDS011;11491;41.942;24.220;2024-03-23T10:58:23;7.95;;;6.07;;
22648;SDS011;11491;41.942;24.220;2024-03-23T11:00:53;12.35;;;10.00;;
22648;SDS011;11491;41.942;24.220;2024-03-23T11:03:31;14.57;;;11.57;;
22648;SDS011;11491;41.942;24.220;2024-03-23T11:05:59;19.35;;;13.48;;
22648;SDS011;11491;41.942;24.220;2024-03-23T11:08:32;22.33;;;15.63;;
22648;SDS011;11491;41.942;24.220;2024-03-23T11:11:15;18.30;;;12.55;;
22648;SDS011;11491;41.942;24.220;2024-03-23T11:13:43;19.25;;;13.95;;
22648;SDS011;11491;41.942;24.220;2024-03-23T11:16:22;15.07;;;9.40;;
22648;SDS011;11491;41.942;24.220;2024-03-23T11:21:57;16.73;;;9.98;;
22648;SDS011;11491;41.942;24.220;2024-03-23T11:24:23;18.42;;;11.95;;
22648;SDS011;11491;41.942;24.220;2024-03-23T11:26:58;20.00;;;12.73;;
22648;SDS011;11491;41.942;24.220;2024-03-23T11:29:37;18.48;;;12.35;;
22648;SDS011;11491;41.942;24.220;2024-03-23T11:32:22;17.42;;;12.25;;
22648;SDS011;11491;41.942;24.220;2024-03-23T11:35:00;33.00;;;20.83;;
22648;SDS011;11491;41.942;24.220;2024-03-23T11:37:32;19.75;;;14.35;;
22648;SDS011;11491;41.942;24.220;2024-03-23T11:40:24;27.65;;;15.57;;
22648;SDS011;11491;41.942;24.220;2024-03-23T11:42:57;32.63;;;20.85;;
22648;SDS011;11491;41.942;24.220;2024-03-23T11:45:24;21.23;;;14.85;;
22648;SDS011;11491;41.942;24.220;2024-03-23T11:50:36;25.75;;;17.70;;
22648;SDS011;11491;41.942;24.220;2024-03-23T11:53:06;41.85;;;27.42;;
22648;SDS011;11491;41.942;24.220;2024-03-23T11:55:45;30.67;;;19.33;;
22648;SDS011;11491;41.942;24.220;2024-03-23T11:58:14;46.33;;;30.23;;
22648;SDS011;11491;41.942;24.220;2024-03-23T12:00:40;34.88;;;23.27;;
22648;SDS011;11491;41.942;24.220;2024-03-23T12:03:07;25.98;;;15.90;;
22648;SDS011;11491;41.942;24.220;2024-03-23T12:05:35;11.73;;;7.40;;
22648;SDS011;11491;41.942;24.220;2024-03-23T12:08:20;16.52;;;9.45;;
22648;SDS011;11491;41.942;24.220;2024-03-23T12:10:49;10.20;;;8.10;;
22648;SDS011;11491;41.942;24.220;2024-03-23T12:13:19;36.25;;;24.00;;
22648;SDS011;11491;41.942;24.220;2024-03-23T12:15:46;21.58;;;13.98;;
22648;SDS011;11491;41.942;24.220;2024-03-23T12:18:15;34.33;;;21.60;;
22648;SDS011;11491;41.942;24.220;2024-03-23T12:20:41;20.05;;;14.73;;
22648;SDS011;11491;41.942;24.220;2024-03-23T12:23:08;45.20;;;28.55;;
22648;SDS011;11491;41.942;24.220;2024-03-23T12:25:36;12.25;;;5.40;;
22648;SDS011;11491;41.942;24.220;2024-03-23T12:28:03;16.70;;;11.35;;
22648;SDS011;11491;41.942;24.220;2024-03-23T12:30:32;24.00;;;19.23;;
22648;SDS011;11491;41.942;24.220;2024-03-23T12:33:00;17.00;;;12.02;;
22648;SDS011;11491;41.942;24.220;2024-03-23T12:35:26;11.82;;;7.50;;
22648;SDS011;11491;41.942;24.220;2024-03-23T12:37:52;12.48;;;9.63;;
22648;SDS011;11491;41.942;24.220;2024-03-23T12:40:18;24.70;;;17.98;;
22648;SDS011;11491;41.942;24.220;2024-03-23T12:42:45;20.20;;;13.70;;
22648;SDS011;11491;41.942;24.220;2024-03-23T12:45:11;35.60;;;27.05;;
22648;SDS011;11491;41.942;24.220;2024-03-23T12:47:39;11.70;;;8.98;;
22648;SDS011;11491;41.942;24.220;2024-03-23T12:50:05;37.42;;;28.85;;
22648;SDS011;11491;41.942;24.220;2024-03-23T12:52:32;27.65;;;16.50;;
22648;SDS011;11491;41.942;24.220;2024-03-23T12:54:58;32.05;;;21.40;;
22648;SDS011;11491;41.942;24.220;2024-03-23T12:57:24;24.80;;;18.23;;
22648;SDS011;11491;41.942;24.220;2024-03-23T12:59:50;22.20;;;17.38;;
22648;SDS011;11491;41.942;24.220;2024-03-23T13:02:18;16.55;;;10.73;;
22648;SDS011;11491;41.942;24.220;2024-03-23T13:04:46;17.35;;;8.85;;
22648;SDS011;11491;41.942;24.220;2024-03-23T13:07:15;16.00;;;12.43;;
22648;SDS011;11491;41.942;24.220;2024-03-23T13:09:41;16.13;;;14.00;;
22648;SDS011;11491;41.942;24.220;2024-03-23T13:12:08;38.13;;;31.20;;
22648;SDS011;11491;41.942;24.220;2024-03-23T13:14:34;33.45;;;30.02;;
22648;SDS011;11491;41.942;24.220;2024-03-23T13:17:01;27.73;;;23.17;;
22648;SDS011;11491;41.942;24.220;2024-03-23T13:19:27;15.23;;;11.50;;
22648;SDS011;11491;41.942;24.220;2024-03-23T13:21:57;28.10;;;21.42;;
22648;SDS011;11491;41.942;24.220;2024-03-23T13:24:23;16.33;;;12.20;;
22648;SDS011;11491;41.942;24.220;2024-03-23T13:26:50;14.50;;;11.43;;
22648;SDS011;11491;41.942;24.220;2024-03-23T13:29:16;8.10;;;5.70;;
22648;SDS011;11491;41.942;24.220;2024-03-23T13:31:43;17.02;;;15.35;;
22648;SDS011;11491;41.942;24.220;2024-03-23T13:34:09;14.98;;;11.50;;
22648;SDS011;11491;41.942;24.220;2024-03-23T13:36:36;15.27;;;12.25;;
22648;SDS011;11491;41.942;24.220;2024-03-23T13:39:03;10.63;;;8.70;;
22648;SDS011;11491;41.942;24.220;2024-03-23T13:41:36;20.02;;;18.23;;
22648;SDS011;11491;41.942;24.220;2024-03-23T13:44:02;14.00;;;10.27;;
22648;SDS011;11491;41.942;24.220;2024-03-23T13:46:29;12.25;;;8.80;;
22648;SDS011;11491;41.942;24.220;2024-03-23T13:48:55;14.15;;;10.02;;
22648;SDS011;11491;41.942;24.220;2024-03-23T13:51:23;34.38;;;27.83;;
22648;SDS011;11491;41.942;24.220;2024-03-23T13:53:50;12.80;;;9.25;;
22648;SDS011;11491;41.942;24.220;2024-03-23T13:56:18;8.18;;;5.20;;
22648;SDS011;11491;41.942;24.220;2024-03-23T13:58:44;23.55;;;14.15;;
22648;SDS011;11491;41.942;24.220;2024-03-23T14:01:12;10.88;;;7.68;;
22648;SDS011;11491;41.942;24.220;2024-03-23T14:03:39;15.98;;;12.50;;
22648;SDS011;11491;41.942;24.220;2024-03-23T14:06:06;13.98;;;9.80;;
22648;SDS011;11491;41.942;24.220;2024-03-23T14:08:32;20.98;;;13.98;;
22648;SDS011;11491;41.942;24.220;2024-03-23T14:11:01;7.60;;;5.13;;
22648;SDS011;11491;41.942;24.220;2024-03-23T14:13:30;9.63;;;6.60;;
22648;SDS011;11491;41.942;24.220;2024-03-23T14:15:57;8.40;;;5.70;;
22648;SDS011;11491;41.942;24.220;2024-03-23T14:18:23;10.48;;;5.95;;
22648;SDS011;11491;41.942;24.220;2024-03-23T14:20:51;14.85;;;9.60;;
22648;SDS011;11491;41.942;24.220;2024-03-23T14:23:17;9.00;;;5.65;;
22648;SDS011;11491;41.942;24.220;2024-03-23T14:25:44;6.95;;;3.95;;
22648;SDS011;11491;41.942;24.220;2024-03-23T14:28:10;17.83;;;14.50;;
22648;SDS011;11491;41.942;24.220;2024-03-23T14:30:41;30.00;;;21.33;;
22648;SDS011;11491;41.942;24.220;2024-03-23T14:33:07;47.22;;;31.52;;
22648;SDS011;11491;41.942;24.220;2024-03-23T14:35:34;7.97;;;5.95;;
22648;SDS011;11491;41.942;24.220;2024-03-23T14:38:00;13.00;;;8.88;;
22648;SDS011;11491;41.942;24.220;2024-03-23T14:40:27;19.00;;;11.82;;
22648;SDS011;11491;41.942;24.220;2024-03-23T14:42:53;13.57;;;7.50;;
22648;SDS011;11491;41.942;24.220;2024-03-23T14:45:20;20.00;;;9.93;;
22648;SDS011;11491;41.942;24.220;2024-03-23T14:47:48;9.30;;;5.00;;
22648;SDS011;11491;41.942;24.220;2024-03-23T14:50:15;10.82;;;6.03;;
22648;SDS011;11491;41.942;24.220;2024-03-23T14:52:41;7.05;;;5.07;;
22648;SDS011;11491;41.942;24.220;2024-03-23T14:55:10;11.13;;;4.45;;
22648;SDS011;11491;41.942;24.220;2024-03-23T14:57:36;10.00;;;7.28;;
22648;SDS011;11491;41.942;24.220;2024-03-23T15:00:04;8.85;;;5.30;;
22648;SDS011;11491;41.942;24.220;2024-03-23T15:02:32;9.50;;;6.05;;
22648;SDS011;11491;41.942;24.220;2024-03-23T15:05:01;15.00;;;7.30;;
22648;SDS011;11491;41.942;24.220;2024-03-23T15:07:28;13.95;;;5.05;;
22648;SDS011;11491;41.942;24.220;2024-03-23T15:09:55;5.97;;;4.40;;
22648;SDS011;11491;41.942;24.220;2024-03-23T15:12:21;10.73;;;8.43;;
22648;SDS011;11491;41.942;24.220;2024-03-23T15:14:48;15.65;;;8.85;;